createdAt,value
2018-04-23T00:00:58.745Z,17.20
2018-04-23T00:01:58.722Z,14.20
2018-04-23T00:02:58.661Z,16.00
2018-04-23T00:03:58.634Z,16.70
2018-04-23T00:04:58.635Z,17.50
2018-04-23T00:05:58.557Z,15.60
2018-04-23T00:06:58.582Z,15.90
2018-04-23T00:07:58.491Z,16.50
2018-04-23T00:08:58.445Z,16.20
2018-04-23T00:09:58.412Z,16.50
2018-04-23T00:10:58.425Z,16.60
2018-04-23T00:11:58.353Z,17.00
2018-04-23T00:12:58.297Z,17.20
2018-04-23T00:13:58.295Z,17.30
2018-04-23T00:14:58.265Z,17.30
2018-04-23T00:15:58.240Z,18.40
2018-04-23T00:16:58.183Z,17.20
2018-04-23T00:17:58.147Z,18.00
2018-04-23T00:18:58.110Z,17.20
2018-04-23T00:19:58.071Z,16.80
2018-04-23T00:20:58.041Z,17.20
2018-04-23T00:21:58.183Z,16.80
2018-04-23T00:22:57.973Z,16.60
2018-04-23T00:23:57.941Z,16.90
2018-04-23T00:24:57.883Z,15.40
2018-04-23T00:25:57.929Z,16.30
2018-04-23T00:26:57.809Z,17.10
2018-04-23T00:27:57.772Z,16.80
2018-04-23T00:28:57.738Z,16.10
2018-04-23T00:29:57.698Z,17.10
2018-04-23T00:30:57.673Z,16.80
2018-04-23T00:31:57.644Z,16.90
2018-04-23T00:32:57.622Z,16.90
2018-04-23T00:33:57.567Z,15.90
2018-04-23T00:34:57.555Z,16.40
2018-04-23T00:35:57.491Z,16.50
2018-04-23T00:36:57.455Z,16.50
2018-04-23T00:37:57.436Z,17.30
2018-04-23T00:38:57.382Z,16.60
2018-04-23T00:39:57.361Z,18.10
2018-04-23T00:40:57.343Z,18.20
2018-04-23T00:41:58.092Z,17.60
2018-04-23T00:42:57.272Z,16.60
2018-04-23T00:43:57.368Z,17.60
2018-04-23T00:44:57.169Z,17.50
2018-04-23T00:45:57.158Z,17.00
2018-04-23T00:46:57.135Z,17.50
2018-04-23T00:47:57.053Z,16.90
2018-04-23T00:48:57.046Z,18.00
2018-04-23T00:49:57.000Z,18.10
2018-04-23T00:50:56.954Z,18.20
2018-04-23T00:51:56.939Z,18.30
2018-04-23T00:52:56.882Z,19.30
2018-04-23T00:53:56.864Z,17.90
2018-04-23T00:54:56.828Z,18.40
2018-04-23T00:55:56.778Z,17.70
2018-04-23T00:56:56.741Z,18.10
2018-04-23T00:57:56.733Z,18.90
2018-04-23T00:58:56.655Z,18.60
2018-04-23T00:59:56.636Z,15.40
2018-04-23T01:00:56.579Z,16.90
2018-04-23T01:01:56.581Z,17.80
2018-04-23T01:02:56.513Z,19.30
2018-04-23T01:03:56.493Z,19.20
2018-04-23T01:04:56.438Z,15.20
2018-04-23T01:05:56.403Z,15.30
2018-04-23T01:06:56.398Z,17.00
2018-04-23T01:07:56.335Z,19.00
2018-04-23T01:08:56.297Z,19.10
2018-04-23T01:09:56.285Z,18.70
2018-04-23T01:10:56.285Z,19.70
2018-04-23T01:11:56.293Z,19.40
2018-04-23T01:12:56.160Z,19.40
2018-04-23T01:13:56.156Z,18.10
2018-04-23T01:14:56.081Z,18.50
2018-04-23T01:15:56.088Z,19.50
2018-04-23T01:16:56.071Z,18.80
2018-04-23T01:17:56.039Z,19.10
2018-04-23T01:18:55.943Z,19.50
2018-04-23T01:19:55.898Z,19.20
2018-04-23T01:20:55.874Z,20.70
2018-04-23T01:21:55.880Z,20.70
2018-04-23T01:22:55.823Z,20.80
2018-04-23T01:23:55.781Z,21.40
2018-04-23T01:24:55.782Z,20.50
2018-04-23T01:25:55.690Z,20.30
2018-04-23T01:26:55.675Z,22.20
2018-04-23T01:27:55.620Z,20.50
2018-04-23T01:28:55.589Z,20.90
2018-04-23T01:29:55.604Z,22.40
2018-04-23T01:30:55.547Z,22.10
2018-04-23T01:31:55.459Z,20.40
2018-04-23T01:32:55.457Z,19.60
2018-04-23T01:33:55.453Z,21.50
2018-04-23T01:34:56.100Z,23.10
2018-04-23T01:35:55.311Z,21.80
2018-04-23T01:36:55.340Z,22.70
2018-04-23T01:37:55.245Z,22.20
2018-04-23T01:38:55.269Z,22.50
2018-04-23T01:39:55.163Z,23.60
2018-04-23T01:40:55.165Z,23.10
2018-04-23T01:41:55.127Z,24.40
2018-04-23T01:42:55.082Z,21.80
2018-04-23T01:43:55.051Z,21.50
2018-04-23T01:44:55.013Z,21.60
2018-04-23T01:45:54.974Z,23.50
2018-04-23T01:46:54.918Z,21.80
2018-04-23T01:47:54.919Z,19.00
2018-04-23T01:48:54.873Z,19.10
2018-04-23T01:49:54.837Z,22.80
2018-04-23T01:50:54.781Z,24.30
2018-04-23T01:51:54.740Z,21.20
2018-04-23T01:52:54.703Z,20.10
2018-04-23T01:53:54.654Z,23.00
2018-04-23T01:54:54.682Z,24.00
2018-04-23T01:55:54.597Z,26.00
2018-04-23T01:56:54.561Z,25.90
2018-04-23T01:57:54.543Z,26.00
2018-04-23T01:58:54.490Z,26.20
2018-04-23T01:59:54.502Z,26.90
2018-04-23T02:00:54.450Z,22.50
2018-04-23T02:01:54.376Z,21.70
2018-04-23T02:02:54.333Z,23.10
2018-04-23T02:03:54.334Z,27.00
2018-04-23T02:04:54.281Z,26.40
2018-04-23T02:05:54.235Z,22.80
2018-04-23T02:06:54.209Z,21.80
2018-04-23T02:07:54.171Z,23.00
2018-04-23T02:08:54.140Z,26.10
2018-04-23T02:09:54.071Z,25.60
2018-04-23T02:10:54.081Z,25.70
2018-04-23T02:11:54.006Z,23.20
2018-04-23T02:12:53.981Z,24.30
2018-04-23T02:13:53.923Z,26.80
2018-04-23T02:14:53.939Z,26.70
2018-04-23T02:15:53.857Z,27.30
2018-04-23T02:16:53.821Z,26.20
2018-04-23T02:17:53.806Z,28.80
2018-04-23T02:18:53.733Z,29.60
2018-04-23T02:19:53.724Z,27.60
2018-04-23T02:20:53.707Z,28.00
2018-04-23T02:21:53.643Z,29.90
2018-04-23T02:22:53.621Z,28.30
2018-04-23T02:23:53.578Z,30.40
2018-04-23T02:24:53.516Z,28.80
2018-04-23T02:25:53.584Z,30.00
2018-04-23T02:26:53.452Z,29.10
2018-04-23T02:27:53.422Z,29.50
2018-04-23T02:28:53.371Z,31.10
2018-04-23T02:29:53.378Z,29.20
2018-04-23T02:30:53.322Z,29.30
2018-04-23T02:31:53.260Z,27.70
2018-04-23T02:32:53.321Z,27.80
2018-04-23T02:33:53.203Z,29.10
2018-04-23T02:34:53.149Z,27.30
2018-04-23T02:35:53.123Z,25.30
2018-04-23T02:36:53.069Z,25.70
2018-04-23T02:37:53.620Z,25.80
2018-04-23T02:38:52.994Z,27.10
2018-04-23T02:39:52.985Z,27.50
2018-04-23T02:40:52.942Z,24.30
2018-04-23T02:41:52.887Z,24.10
2018-04-23T02:42:52.860Z,25.90
2018-04-23T02:43:52.824Z,26.20
2018-04-23T02:44:52.794Z,26.70
2018-04-23T02:45:52.809Z,25.80
2018-04-23T02:46:52.774Z,23.90
2018-04-23T02:47:52.690Z,25.10
2018-04-23T02:48:52.627Z,27.80
2018-04-23T02:49:52.614Z,25.90
2018-04-23T02:50:52.558Z,24.20
2018-04-23T02:51:52.535Z,26.20
2018-04-23T02:52:52.477Z,27.90
2018-04-23T02:53:52.448Z,29.10
2018-04-23T02:54:52.468Z,30.60
2018-04-23T02:55:52.393Z,31.00
2018-04-23T02:56:52.342Z,31.20
2018-04-23T02:57:52.301Z,30.30
2018-04-23T02:58:52.270Z,27.90
2018-04-23T02:59:52.226Z,30.40
2018-04-23T03:00:52.184Z,30.50
2018-04-23T03:01:52.144Z,29.90
2018-04-23T03:02:52.169Z,29.50
2018-04-23T03:03:52.098Z,28.70
2018-04-23T03:04:52.036Z,27.30
2018-04-23T03:05:51.989Z,28.60
2018-04-23T03:06:51.978Z,28.80
2018-04-23T03:07:51.950Z,30.90
2018-04-23T03:08:51.957Z,31.80
2018-04-23T03:09:51.867Z,30.70
2018-04-23T03:10:51.910Z,31.30
2018-04-23T03:11:51.793Z,30.50
2018-04-23T03:12:51.743Z,31.00
2018-04-23T03:13:51.713Z,29.90
2018-04-23T03:14:51.696Z,29.60
2018-04-23T03:15:51.628Z,27.90
2018-04-23T03:16:51.590Z,30.40
2018-04-23T03:17:51.675Z,28.80
2018-04-23T03:18:51.535Z,29.50
2018-04-23T03:19:51.485Z,28.50
2018-04-23T03:20:51.444Z,29.00
2018-04-23T03:21:51.433Z,27.80
2018-04-23T03:22:51.387Z,28.30
2018-04-23T03:23:51.353Z,29.70
2018-04-23T03:24:51.323Z,30.10
2018-04-23T03:25:51.276Z,31.40
2018-04-23T03:26:51.257Z,31.40
2018-04-23T03:27:51.211Z,29.00
2018-04-23T03:28:51.147Z,28.40
2018-04-23T03:29:51.116Z,27.90
2018-04-23T03:30:51.097Z,28.60
2018-04-23T03:31:51.061Z,25.70
2018-04-23T03:32:50.995Z,26.70
2018-04-23T03:33:50.963Z,28.70
2018-04-23T03:34:50.947Z,29.00
2018-04-23T03:35:50.884Z,25.30
2018-04-23T03:36:50.865Z,26.40
2018-04-23T03:37:50.849Z,28.60
2018-04-23T03:38:50.802Z,28.30
2018-04-23T03:39:50.744Z,23.70
2018-04-23T03:40:50.765Z,25.30
2018-04-23T03:41:50.704Z,27.80
2018-04-23T03:42:50.645Z,27.00
2018-04-23T03:43:50.589Z,27.80
2018-04-23T03:44:50.585Z,27.20
2018-04-23T03:45:50.513Z,26.10
2018-04-23T03:46:50.496Z,26.80
2018-04-23T03:47:50.463Z,28.20
2018-04-23T03:48:50.420Z,29.10
2018-04-23T03:49:50.383Z,30.90
2018-04-23T03:50:50.386Z,30.90
2018-04-23T03:51:50.313Z,31.30
2018-04-23T03:52:50.372Z,31.90
2018-04-23T03:53:50.221Z,31.40
2018-04-23T03:54:50.176Z,31.40
2018-04-23T03:55:50.203Z,30.70
2018-04-23T03:56:50.143Z,32.40
2018-04-23T03:57:50.077Z,31.90
2018-04-23T03:58:50.083Z,31.60
2018-04-23T03:59:49.994Z,30.30
2018-04-23T04:00:49.965Z,31.00
2018-04-23T04:01:49.942Z,29.70
2018-04-23T04:02:49.903Z,30.10
2018-04-23T04:03:49.856Z,30.10
2018-04-23T04:04:49.806Z,30.80
2018-04-23T04:05:49.771Z,29.30
2018-04-23T04:06:49.747Z,31.90
2018-04-23T04:07:49.726Z,31.40
2018-04-23T04:08:49.840Z,31.90
2018-04-23T04:09:49.769Z,33.10
2018-04-23T04:10:49.632Z,31.50
2018-04-23T04:11:49.601Z,31.40
2018-04-23T04:12:49.527Z,30.20
2018-04-23T04:13:49.526Z,30.10
2018-04-23T04:14:49.449Z,29.20
2018-04-23T04:15:49.412Z,28.60
2018-04-23T04:16:49.388Z,28.10
2018-04-23T04:17:49.336Z,27.70
2018-04-23T04:18:49.281Z,28.20
2018-04-23T04:19:49.243Z,28.90
2018-04-23T04:20:49.228Z,27.90
2018-04-23T04:21:49.186Z,27.70
2018-04-23T04:22:49.135Z,28.00
2018-04-23T04:23:49.118Z,26.70
2018-04-23T04:24:49.071Z,26.70
2018-04-23T04:25:49.029Z,27.50
2018-04-23T04:26:49.032Z,26.30
2018-04-23T04:27:49.001Z,26.50
2018-04-23T04:28:48.939Z,26.90
2018-04-23T04:29:48.888Z,25.60
2018-04-23T04:30:48.875Z,25.20
2018-04-23T04:31:49.649Z,26.40
2018-04-23T04:32:48.786Z,24.70
2018-04-23T04:33:48.750Z,24.10
2018-04-23T04:34:48.742Z,24.30
2018-04-23T04:35:48.722Z,23.70
2018-04-23T04:36:48.643Z,24.70
2018-04-23T04:37:48.645Z,23.50
2018-04-23T04:38:48.571Z,24.10
2018-04-23T04:39:48.520Z,22.30
2018-04-23T04:40:48.529Z,21.30
2018-04-23T04:41:48.499Z,22.10
2018-04-23T04:42:48.409Z,22.70
2018-04-23T04:43:48.404Z,22.50
2018-04-23T04:44:48.363Z,22.50
2018-04-23T04:45:48.306Z,21.40
2018-04-23T04:46:48.373Z,21.60
2018-04-23T04:47:48.261Z,22.30
2018-04-23T04:48:48.208Z,21.30
2018-04-23T04:49:48.148Z,21.80
2018-04-23T04:50:48.124Z,21.90
2018-04-23T04:51:48.166Z,20.70
2018-04-23T04:52:48.073Z,20.10
2018-04-23T04:53:48.024Z,20.10
2018-04-23T04:54:47.985Z,19.30
2018-04-23T04:55:47.951Z,20.80
2018-04-23T04:56:47.944Z,20.30
2018-04-23T04:57:47.921Z,19.60
2018-04-23T04:58:47.839Z,20.20
2018-04-23T04:59:47.796Z,21.20
2018-04-23T05:00:47.785Z,21.30
2018-04-23T05:01:47.756Z,21.40
2018-04-23T05:02:47.685Z,20.20
2018-04-23T05:03:47.665Z,20.20
2018-04-23T05:04:47.643Z,19.30
2018-04-23T05:05:47.607Z,18.70
2018-04-23T05:06:47.570Z,18.30
2018-04-23T05:07:47.519Z,17.60
2018-04-23T05:08:47.481Z,18.90
2018-04-23T05:09:47.504Z,18.20
2018-04-23T05:10:47.404Z,18.10
2018-04-23T05:11:47.391Z,16.40
2018-04-23T05:12:47.334Z,16.80
2018-04-23T05:13:47.345Z,16.50
2018-04-23T05:14:47.305Z,17.00
2018-04-23T05:15:47.271Z,18.10
2018-04-23T05:16:47.201Z,16.40
2018-04-23T05:17:47.229Z,16.60
2018-04-23T05:18:47.128Z,17.30
2018-04-23T05:19:47.088Z,18.30
2018-04-23T05:20:47.051Z,18.50
2018-04-23T05:21:47.040Z,16.20
2018-04-23T05:22:47.066Z,16.10
2018-04-23T05:23:47.004Z,16.60
2018-04-23T05:24:46.961Z,16.80
2018-04-23T05:25:46.923Z,15.00
2018-04-23T05:26:46.852Z,16.80
2018-04-23T05:27:46.848Z,16.20
2018-04-23T05:28:46.773Z,15.70
2018-04-23T05:29:46.746Z,17.00
2018-04-23T05:30:46.712Z,16.00
2018-04-23T05:31:46.672Z,15.70
2018-04-23T05:32:46.641Z,15.90
2018-04-23T05:33:46.687Z,15.40
2018-04-23T05:34:46.605Z,17.10
2018-04-23T05:35:46.604Z,16.80
2018-04-23T05:36:46.509Z,15.00
2018-04-23T05:37:46.491Z,15.10
2018-04-23T05:38:46.432Z,15.20
2018-04-23T05:39:46.413Z,14.40
2018-04-23T05:40:46.360Z,15.30
2018-04-23T05:41:46.325Z,16.30
2018-04-23T05:42:46.321Z,16.00
2018-04-23T05:43:46.256Z,14.90
2018-04-23T05:44:46.233Z,15.50
2018-04-23T05:45:46.193Z,14.60
2018-04-23T05:46:46.179Z,14.80
2018-04-23T05:47:46.230Z,15.10
2018-04-23T05:48:46.112Z,15.20
2018-04-23T05:49:46.050Z,17.70
2018-04-23T05:50:46.036Z,16.00
2018-04-23T05:51:46.007Z,15.80
2018-04-23T05:52:45.957Z,15.30
2018-04-23T05:53:45.925Z,15.60
2018-04-23T05:54:45.905Z,15.00
2018-04-23T05:55:45.871Z,15.60
2018-04-23T05:56:45.817Z,15.30
2018-04-23T05:57:45.803Z,16.80
2018-04-23T05:58:45.752Z,15.70
2018-04-23T05:59:45.728Z,14.70
2018-04-23T06:00:45.822Z,14.60
2018-04-23T06:01:45.647Z,14.80
2018-04-23T06:02:45.636Z,15.00
2018-04-23T06:03:45.587Z,14.60
2018-04-23T06:04:45.547Z,14.60
2018-04-23T06:05:45.585Z,14.00
2018-04-23T06:06:45.477Z,15.70
2018-04-23T06:07:45.465Z,14.10
2018-04-23T06:08:45.525Z,13.50
2018-04-23T06:09:45.434Z,12.20
2018-04-23T06:10:45.367Z,12.90
2018-04-23T06:11:45.374Z,13.40
2018-04-23T06:12:45.284Z,12.50
2018-04-23T06:13:45.274Z,11.50
2018-04-23T06:14:45.217Z,11.20
2018-04-23T06:15:45.232Z,11.50
2018-04-23T06:16:45.162Z,11.50
2018-04-23T06:17:45.134Z,10.90
2018-04-23T06:18:45.103Z,10.60
2018-04-23T06:19:45.082Z,11.10
2018-04-23T06:20:45.041Z,11.40
2018-04-23T06:21:45.020Z,10.70
2018-04-23T06:22:44.971Z,10.90
2018-04-23T06:23:44.959Z,10.90
2018-04-23T06:24:44.928Z,11.10
2018-04-23T06:25:44.878Z,12.70
2018-04-23T06:26:44.940Z,12.10
2018-04-23T06:27:44.805Z,11.90
2018-04-23T06:28:44.777Z,11.50
2018-04-23T06:29:44.752Z,13.50
2018-04-23T06:30:44.717Z,11.20
2018-04-23T06:31:44.686Z,12.40
2018-04-23T06:32:44.665Z,12.10
2018-04-23T06:33:44.609Z,11.80
2018-04-23T06:34:44.596Z,12.00
2018-04-23T06:35:44.549Z,12.00
2018-04-23T06:36:44.555Z,11.80
2018-04-23T06:37:44.494Z,13.30
2018-04-23T06:38:44.485Z,12.60
2018-04-23T06:39:44.417Z,12.90
2018-04-23T06:40:44.383Z,11.30
2018-04-23T06:41:44.453Z,11.60
2018-04-23T06:42:44.327Z,10.40
2018-04-23T06:43:44.289Z,11.40
2018-04-23T06:44:44.299Z,11.10
2018-04-23T06:45:44.250Z,11.00
2018-04-23T06:46:44.203Z,9.90
2018-04-23T06:47:44.178Z,10.50
2018-04-23T06:48:44.177Z,9.40
2018-04-23T06:49:44.097Z,9.80
2018-04-23T06:50:44.073Z,9.60
2018-04-23T06:51:44.069Z,9.10
2018-04-23T06:52:44.030Z,9.70
2018-04-23T06:53:43.985Z,10.60
2018-04-23T06:54:43.958Z,10.90
2018-04-23T06:55:43.922Z,10.00
2018-04-23T06:56:43.903Z,10.70
2018-04-23T06:57:43.889Z,10.50
2018-04-23T06:58:43.821Z,9.90
2018-04-23T06:59:43.873Z,9.70
2018-04-23T07:00:43.798Z,10.10
2018-04-23T07:01:43.777Z,11.40
2018-04-23T07:02:43.722Z,11.40
2018-04-23T07:03:43.703Z,11.50
2018-04-23T07:04:43.680Z,10.80
2018-04-23T07:05:43.620Z,10.30
2018-04-23T07:06:43.571Z,12.80
2018-04-23T07:07:43.552Z,10.80
2018-04-23T07:08:43.523Z,10.10
2018-04-23T07:09:43.517Z,11.00
2018-04-23T07:10:43.469Z,10.90
2018-04-23T07:11:43.435Z,11.10
2018-04-23T07:12:43.452Z,9.00
2018-04-23T07:13:43.394Z,10.70
2018-04-23T07:14:43.353Z,10.10
2018-04-23T07:15:43.369Z,8.70
2018-04-23T07:16:43.298Z,8.80
2018-04-23T07:17:43.299Z,10.00
2018-04-23T07:18:43.273Z,10.60
2018-04-23T07:19:43.172Z,11.10
2018-04-23T07:20:43.166Z,10.40
2018-04-23T07:21:43.138Z,10.30
2018-04-23T07:22:43.090Z,9.80
2018-04-23T07:23:43.072Z,9.80
2018-04-23T07:24:43.055Z,11.30
2018-04-23T07:25:43.005Z,9.90
2018-04-23T07:26:42.999Z,9.30
2018-04-23T07:27:42.957Z,13.20
2018-04-23T07:28:42.936Z,9.40
2018-04-23T07:29:42.952Z,10.10
2018-04-23T07:30:42.899Z,10.10
2018-04-23T07:31:42.850Z,9.90
2018-04-23T07:32:42.799Z,10.10
2018-04-23T07:33:42.771Z,11.20
2018-04-23T07:34:42.756Z,9.60
2018-04-23T07:35:42.724Z,9.50
2018-04-23T07:36:42.704Z,9.60
2018-04-23T07:37:42.665Z,10.80
2018-04-23T07:38:42.677Z,11.30
2018-04-23T07:39:42.612Z,8.60
2018-04-23T07:40:42.653Z,12.00
2018-04-23T07:41:42.553Z,10.10
2018-04-23T07:42:42.526Z,8.90
2018-04-23T07:43:42.504Z,13.00
2018-04-23T07:44:42.468Z,12.20
2018-04-23T07:45:42.433Z,9.60
2018-04-23T07:46:42.417Z,11.00
2018-04-23T07:47:42.382Z,9.80
2018-04-23T07:48:42.363Z,9.00
2018-04-23T07:49:42.333Z,12.00
2018-04-23T07:50:42.299Z,10.50
2018-04-23T07:51:42.273Z,8.80
2018-04-23T07:52:42.267Z,12.10
2018-04-23T07:53:42.250Z,10.80
2018-04-23T07:54:42.216Z,8.30
2018-04-23T07:55:42.186Z,9.40
2018-04-23T07:56:42.191Z,10.30
2018-04-23T07:57:42.141Z,9.40
2018-04-23T07:58:42.104Z,11.60
2018-04-23T07:59:42.109Z,13.60
2018-04-23T08:00:42.076Z,10.70
2018-04-23T08:01:42.040Z,10.70
2018-04-23T08:02:42.013Z,8.80
2018-04-23T08:03:41.983Z,11.00
2018-04-23T08:04:41.986Z,9.40
2018-04-23T08:05:41.949Z,8.30
2018-04-23T08:06:41.989Z,9.60
2018-04-23T08:07:41.886Z,10.20
2018-04-23T08:08:41.865Z,10.90
2018-04-23T08:09:41.900Z,11.20
2018-04-23T08:10:41.802Z,10.60
2018-04-23T08:11:41.809Z,9.30
2018-04-23T08:12:41.772Z,12.30
2018-04-23T08:13:41.736Z,14.30
2018-04-23T08:14:41.714Z,10.90
2018-04-23T08:15:41.683Z,11.30
2018-04-23T08:16:41.648Z,14.00
2018-04-23T08:17:41.627Z,11.00
2018-04-23T08:18:41.614Z,10.10
2018-04-23T08:19:41.619Z,11.80
2018-04-23T08:20:41.550Z,12.70
2018-04-23T08:21:41.532Z,10.00
2018-04-23T08:22:41.486Z,10.20
2018-04-23T08:23:41.489Z,11.20
2018-04-23T08:24:41.446Z,11.40
2018-04-23T08:25:41.411Z,10.50
2018-04-23T08:26:41.394Z,9.70
2018-04-23T08:27:41.353Z,10.80
2018-04-23T08:28:41.351Z,12.10
2018-04-23T08:29:41.308Z,14.40
2018-04-23T08:30:41.287Z,10.50
2018-04-23T08:31:41.281Z,10.20
2018-04-23T08:32:41.300Z,9.00
2018-04-23T08:33:41.211Z,10.10
2018-04-23T08:34:41.161Z,14.00
2018-04-23T08:35:41.166Z,13.60
2018-04-23T08:36:41.122Z,11.20
2018-04-23T08:37:41.108Z,11.40
2018-04-23T08:38:41.078Z,11.40
2018-04-23T08:39:41.046Z,9.50
2018-04-23T08:40:41.047Z,10.70
2018-04-23T08:41:40.996Z,11.70
2018-04-23T08:42:40.995Z,12.40
2018-04-23T08:43:40.946Z,16.10
2018-04-23T08:44:40.907Z,14.10
2018-04-23T08:45:40.883Z,10.60
2018-04-23T08:46:40.846Z,10.50
2018-04-23T08:47:40.822Z,9.70
2018-04-23T08:48:40.876Z,9.30
2018-04-23T08:49:40.860Z,12.00
2018-04-23T08:50:40.758Z,8.20
2018-04-23T08:51:40.726Z,10.70
2018-04-23T08:52:40.708Z,13.00
2018-04-23T08:53:40.667Z,12.70
2018-04-23T08:54:40.666Z,12.40
2018-04-23T08:55:40.651Z,11.90
2018-04-23T08:56:40.622Z,12.70
2018-04-23T08:57:40.655Z,10.00
2018-04-23T08:58:40.593Z,11.20
2018-04-23T08:59:40.516Z,11.60
2018-04-23T09:00:40.540Z,12.20
2018-04-23T09:01:40.460Z,11.50
2018-04-23T09:02:40.418Z,11.90
2018-04-23T09:03:40.405Z,11.80
2018-04-23T09:04:40.378Z,11.90
2018-04-23T09:05:40.439Z,9.10
2018-04-23T09:06:40.311Z,13.70
2018-04-23T09:07:40.276Z,10.10
2018-04-23T09:08:40.262Z,11.10
2018-04-23T09:09:40.230Z,12.10
2018-04-23T09:10:40.217Z,12.40
2018-04-23T09:11:40.188Z,12.30
2018-04-23T09:12:40.150Z,12.50
2018-04-23T09:13:40.175Z,10.40
2018-04-23T09:14:40.078Z,10.20
2018-04-23T09:15:40.057Z,12.90
2018-04-23T09:16:40.064Z,12.60
2018-04-23T09:17:40.003Z,10.10
2018-04-23T09:18:40.012Z,12.50
2018-04-23T09:19:39.933Z,11.40
2018-04-23T09:20:39.911Z,12.90
2018-04-23T09:21:39.952Z,13.60
2018-04-23T09:22:39.844Z,11.90
2018-04-23T09:23:39.823Z,12.20
2018-04-23T09:24:39.816Z,11.10
2018-04-23T09:25:39.782Z,10.10
2018-04-23T09:26:39.757Z,14.70
2018-04-23T09:27:39.759Z,11.80
2018-04-23T09:28:39.697Z,11.40
2018-04-23T09:29:39.666Z,12.20
2018-04-23T09:30:39.732Z,10.10
2018-04-23T09:31:39.740Z,11.10
2018-04-23T09:32:39.596Z,14.40
2018-04-23T09:33:39.644Z,11.00
2018-04-23T09:34:39.554Z,9.90
2018-04-23T09:35:39.486Z,11.70
2018-04-23T09:36:39.482Z,8.50
2018-04-23T09:37:39.432Z,15.00
2018-04-23T09:38:39.402Z,13.20
2018-04-23T09:39:39.372Z,12.80
2018-04-23T09:40:39.338Z,10.60
2018-04-23T09:41:39.391Z,13.90
2018-04-23T09:42:39.296Z,11.60
2018-04-23T09:43:39.256Z,12.80
2018-04-23T09:44:39.283Z,10.80
2018-04-23T09:45:39.197Z,13.50
2018-04-23T09:46:39.163Z,10.50
2018-04-23T09:47:39.167Z,12.90
2018-04-23T09:48:39.131Z,13.00
2018-04-23T09:49:39.104Z,12.90
2018-04-23T09:50:39.069Z,11.60
2018-04-23T09:51:39.023Z,8.90
2018-04-23T09:52:39.013Z,11.80
2018-04-23T09:53:38.977Z,9.90
2018-04-23T09:54:38.972Z,12.80
2018-04-23T09:55:38.913Z,13.80
2018-04-23T09:56:38.891Z,12.10
2018-04-23T09:57:38.869Z,10.80
2018-04-23T09:58:38.874Z,12.00
2018-04-23T09:59:38.801Z,14.00
2018-04-23T10:00:38.772Z,11.80
2018-04-23T10:01:38.755Z,10.70
2018-04-23T10:02:38.733Z,12.40
2018-04-23T10:03:38.698Z,11.50
2018-04-23T10:04:38.663Z,9.90
2018-04-23T10:05:38.650Z,9.60
2018-04-23T10:06:38.601Z,10.70
2018-04-23T10:07:38.592Z,11.50
2018-04-23T10:08:38.563Z,13.40
2018-04-23T10:09:38.516Z,11.10
2018-04-23T10:10:38.517Z,10.50
2018-04-23T10:11:38.539Z,10.50
2018-04-23T10:12:38.429Z,12.00
2018-04-23T10:13:38.425Z,13.50
2018-04-23T10:14:38.410Z,9.40
2018-04-23T10:15:38.362Z,11.60
2018-04-23T10:16:38.346Z,10.40
2018-04-23T10:17:38.304Z,10.90
2018-04-23T10:18:38.318Z,13.30
2018-04-23T10:19:38.266Z,10.60
2018-04-23T10:20:38.215Z,13.00
2018-04-23T10:21:38.184Z,11.00
2018-04-23T10:22:38.187Z,10.20
2018-04-23T10:23:38.165Z,10.40
2018-04-23T10:24:38.118Z,11.60
2018-04-23T10:25:38.109Z,11.50
2018-04-23T10:26:38.063Z,11.10
2018-04-23T10:27:38.184Z,10.70
2018-04-23T10:28:38.031Z,9.30
2018-04-23T10:29:38.100Z,13.30
2018-04-23T10:30:37.942Z,10.90
2018-04-23T10:31:37.924Z,11.10
2018-04-23T10:32:37.897Z,12.70
2018-04-23T10:33:37.863Z,12.50
2018-04-23T10:34:37.846Z,11.00
2018-04-23T10:35:37.820Z,9.60
2018-04-23T10:36:37.783Z,11.20
2018-04-23T10:37:37.764Z,10.50
2018-04-23T10:38:37.733Z,12.90
2018-04-23T10:39:37.702Z,11.60
2018-04-23T10:40:37.718Z,12.80
2018-04-23T10:41:37.669Z,11.00
2018-04-23T10:42:37.659Z,10.90
2018-04-23T10:43:37.608Z,10.70
2018-04-23T10:44:37.596Z,10.00
2018-04-23T10:45:37.558Z,11.10
2018-04-23T10:46:37.527Z,12.90
2018-04-23T10:47:37.527Z,9.80
2018-04-23T10:48:37.480Z,11.80
2018-04-23T10:49:37.484Z,10.10
2018-04-23T10:50:37.431Z,11.70
2018-04-23T10:51:37.455Z,11.00
2018-04-23T10:52:37.412Z,9.40
2018-04-23T10:53:37.384Z,13.10
2018-04-23T10:54:37.360Z,13.70
2018-04-23T10:55:37.303Z,10.50
2018-04-23T10:56:37.279Z,11.10
2018-04-23T10:57:37.274Z,10.70
2018-04-23T10:58:37.234Z,13.00
2018-04-23T10:59:37.200Z,8.80
2018-04-23T11:00:37.188Z,13.80
2018-04-23T11:01:37.156Z,10.00
2018-04-23T11:02:37.143Z,10.60
2018-04-23T11:03:37.115Z,14.30
2018-04-23T11:04:37.083Z,7.30
2018-04-23T11:05:37.051Z,8.90
2018-04-23T11:06:37.036Z,10.00
2018-04-23T11:07:37.019Z,10.80
2018-04-23T11:08:36.992Z,12.60
2018-04-23T11:09:37.019Z,9.30
2018-04-23T11:10:37.017Z,11.10
2018-04-23T11:11:36.931Z,9.20
2018-04-23T11:12:36.881Z,14.00
2018-04-23T11:13:36.842Z,11.50
2018-04-23T11:14:36.817Z,10.30
2018-04-23T11:15:36.796Z,12.40
2018-04-23T11:16:36.787Z,11.30
2018-04-23T11:17:36.774Z,12.20
2018-04-23T11:18:36.725Z,13.80
2018-04-23T11:19:36.678Z,12.20
2018-04-23T11:20:36.682Z,8.90
2018-04-23T11:21:36.631Z,12.60
2018-04-23T11:22:36.663Z,11.90
2018-04-23T11:23:36.590Z,12.30
2018-04-23T11:24:36.551Z,11.80
2018-04-23T11:25:36.529Z,10.00
2018-04-23T11:26:36.503Z,12.50
2018-04-23T11:27:36.481Z,15.00
2018-04-23T11:28:36.439Z,10.30
2018-04-23T11:29:36.428Z,10.20
2018-04-23T11:30:36.406Z,11.70
2018-04-23T11:31:36.362Z,10.20
2018-04-23T11:32:36.352Z,11.40
2018-04-23T11:33:36.309Z,11.30
2018-04-23T11:34:36.799Z,14.10
2018-04-23T11:35:36.289Z,11.50
2018-04-23T11:36:36.224Z,11.40
2018-04-23T11:37:36.225Z,8.80
2018-04-23T11:38:36.190Z,11.20
2018-04-23T11:39:36.200Z,11.70
2018-04-23T11:40:36.121Z,11.90
2018-04-23T11:41:36.179Z,9.00
2018-04-23T11:42:36.084Z,11.90
2018-04-23T11:43:36.050Z,9.10
2018-04-23T11:44:36.053Z,12.70
2018-04-23T11:45:36.060Z,12.30
2018-04-23T11:46:35.981Z,9.90
2018-04-23T11:47:35.951Z,11.90
2018-04-23T11:48:35.976Z,15.00
2018-04-23T11:49:35.891Z,9.90
2018-04-23T11:50:35.859Z,11.90
2018-04-23T11:51:35.839Z,12.00
2018-04-23T11:52:35.808Z,11.70
2018-04-23T11:53:35.787Z,13.60
2018-04-23T11:54:35.768Z,11.00
2018-04-23T11:55:35.741Z,10.90
2018-04-23T11:56:35.713Z,11.60
2018-04-23T11:57:35.704Z,12.40
2018-04-23T11:58:35.668Z,14.90
2018-04-23T11:59:35.679Z,10.90
2018-04-23T12:00:35.648Z,12.90
2018-04-23T12:01:35.582Z,12.00
2018-04-23T12:02:35.547Z,11.60
2018-04-23T12:03:35.551Z,11.30
2018-04-23T12:04:35.521Z,11.90
2018-04-23T12:05:35.474Z,11.80
2018-04-23T12:06:35.503Z,10.90
2018-04-23T12:07:35.421Z,10.50
2018-04-23T12:08:35.403Z,14.30
2018-04-23T12:09:35.384Z,11.90
2018-04-23T12:10:35.346Z,12.60
2018-04-23T12:11:35.318Z,12.00
2018-04-23T12:12:35.296Z,12.50
2018-04-23T12:13:35.254Z,10.60
2018-04-23T12:14:35.254Z,11.30
2018-04-23T12:15:35.216Z,11.70
2018-04-23T12:16:35.183Z,9.60
2018-04-23T12:17:35.181Z,11.30
2018-04-23T12:18:35.182Z,12.90
2018-04-23T12:19:35.205Z,16.70
2018-04-23T12:20:35.091Z,14.40
2018-04-23T12:21:35.069Z,11.30
2018-04-23T12:22:35.035Z,11.40
2018-04-23T12:23:35.018Z,14.20
2018-04-23T12:24:34.986Z,15.20
2018-04-23T12:25:34.970Z,15.80
2018-04-23T12:26:34.947Z,12.00
2018-04-23T12:27:34.916Z,10.50
2018-04-23T12:28:34.901Z,13.60
2018-04-23T12:29:34.898Z,12.40
2018-04-23T12:30:34.848Z,13.30
2018-04-23T12:31:34.833Z,12.60
2018-04-23T12:32:34.809Z,13.50
2018-04-23T12:33:34.771Z,12.80
2018-04-23T12:34:34.754Z,11.10
2018-04-23T12:35:34.751Z,15.60
2018-04-23T12:36:34.711Z,13.80
2018-04-23T12:37:34.692Z,11.40
2018-04-23T12:38:34.675Z,12.50
2018-04-23T12:39:34.746Z,14.20
2018-04-23T12:40:34.640Z,15.50
2018-04-23T12:41:34.583Z,12.80
2018-04-23T12:42:34.613Z,12.90
2018-04-23T12:43:34.547Z,9.20
2018-04-23T12:44:34.557Z,14.90
2018-04-23T12:45:34.496Z,14.10
2018-04-23T12:46:34.478Z,12.60
2018-04-23T12:47:34.461Z,10.80
2018-04-23T12:48:34.429Z,10.80
2018-04-23T12:49:34.415Z,13.10
2018-04-23T12:50:34.391Z,14.50
2018-04-23T12:51:34.397Z,12.40
2018-04-23T12:52:34.342Z,12.20
2018-04-23T12:53:34.313Z,9.90
2018-04-23T12:54:34.301Z,12.60